Aqua Bob — WD19623 — position and weather

sailwx.info

Track history (hours):
 
Tides and Currents Weather Stations Pressure Air Temp Water Temp Dewpoint Dewpoint Depression Visibility Wind Speed Wind Dir Waves Ship Positions

Aqua Bob

Last reported at 2018-Apr-19 01:34 UTC. Time now 2018-Apr-22 14:41 UTC.
Position N 27°02' W 079°58'.

Length 16 m.

Type: Sailing vessel. MMSI: 367750540.

Date/timePositionNaut miles runAvg speedWind from/ knotsBaromVisibWave heightAir tempDewpointWater temp
2018-Apr-19 01:34N 27°02' W 079°58'210.2
2018-Apr-19 01:22N 27°00' W 079°58'410.1
2018-Apr-19 00:57N 26°56' W 079°58'39 9.0
2018-Apr-18 20:39N 26°18' W 080°02'2 9.5
2018-Apr-18 20:29N 26°16' W 080°03'4 9.1
2018-Apr-18 19:59N 26°12' W 080°03'4 8.1
2018-Apr-18 19:30N 26°08' W 080°04'3 5.8
2018-Apr-18 19:00N 26°06' W 080°06'2 4.5
2018-Apr-18 18:28N 26°04' W 080°08'0 0.0
2018-Apr-18 17:58N 26°04' W 080°08'0 0.2
2018-Apr-18 17:10N 26°04' W 080°08'0 0.1
2018-Apr-18 16:59N 26°04' W 080°08'0 0.0
2018-Apr-17 21:34N 26°04' W 080°08'0 0.1
2018-Apr-17 21:28N 26°04' W 080°08'0 0.0
2018-Apr-17 21:00N 26°04' W 080°08'0 0.0
2018-Apr-17 20:30N 26°04' W 080°08'0 0.0
2018-Apr-17 20:00N 26°04' W 080°08'0 0.0
2018-Apr-17 19:28N 26°04' W 080°08'0 0.0
2018-Apr-17 17:00N 26°04' W 080°08'0 0.0
2018-Apr-16 18:01N 26°04' W 080°08'0 0.0
2018-Apr-16 17:58N 26°04' W 080°08'0 0.0
2018-Apr-16 17:28N 26°04' W 080°08'0 0.0
2018-Apr-16 16:58N 26°04' W 080°08'0 0.0
2018-Apr-16 16:28N 26°04' W 080°08'0 0.0
2018-Apr-16 15:58N 26°04' W 080°08'0 0.3
2018-Apr-16 15:28N 26°03' W 080°08'0 0.0
2018-Apr-16 14:58N 26°03' W 080°08'0 0.0
2018-Apr-16 14:28N 26°03' W 080°08'0 0.0
2018-Apr-16 13:58N 26°03' W 080°08'0 0.3
2018-Apr-16 13:30N 26°04' W 080°08'  
Track history (hours):
 
Tides and Currents Weather Stations Pressure Air Temp Water Temp Dewpoint Dewpoint Depression Visibility Wind Speed Wind Dir Waves Ship Positions

Aqua Bob

Last reported at 2018-Apr-19 01:34 UTC. Time now 2018-Apr-22 14:41 UTC.
Position N 27°02' W 079°58'.

Length 16 m.

Type: Sailing vessel. MMSI: 367750540.

Date/timePositionNaut miles runAvg speedWind from/ knotsBaromVisibWave heightAir tempDewpointWater temp
2018-Apr-19 01:34N 27°02' W 079°58'210.2
2018-Apr-19 01:22N 27°00' W 079°58'410.1
2018-Apr-19 00:57N 26°56' W 079°58'39 9.0
2018-Apr-18 20:39N 26°18' W 080°02'2 9.5
2018-Apr-18 20:29N 26°16' W 080°03'4 9.1
2018-Apr-18 19:59N 26°12' W 080°03'4 8.1
2018-Apr-18 19:30N 26°08' W 080°04'3 5.8
2018-Apr-18 19:00N 26°06' W 080°06'2 4.5
2018-Apr-18 18:28N 26°04' W 080°08'0 0.0
2018-Apr-18 17:58N 26°04' W 080°08'0 0.2
2018-Apr-18 17:10N 26°04' W 080°08'0 0.1
2018-Apr-18 16:59N 26°04' W 080°08'0 0.0
2018-Apr-17 21:34N 26°04' W 080°08'0 0.1
2018-Apr-17 21:28N 26°04' W 080°08'0 0.0
2018-Apr-17 21:00N 26°04' W 080°08'0 0.0
2018-Apr-17 20:30N 26°04' W 080°08'0 0.0
2018-Apr-17 20:00N 26°04' W 080°08'0 0.0
2018-Apr-17 19:28N 26°04' W 080°08'0 0.0
2018-Apr-17 17:00N 26°04' W 080°08'0 0.0
2018-Apr-16 18:01N 26°04' W 080°08'0 0.0
2018-Apr-16 17:58N 26°04' W 080°08'0 0.0
2018-Apr-16 17:28N 26°04' W 080°08'0 0.0
2018-Apr-16 16:58N 26°04' W 080°08'0 0.0
2018-Apr-16 16:28N 26°04' W 080°08'0 0.0
2018-Apr-16 15:58N 26°04' W 080°08'0 0.3
2018-Apr-16 15:28N 26°03' W 080°08'0 0.0
2018-Apr-16 14:58N 26°03' W 080°08'0 0.0
2018-Apr-16 14:28N 26°03' W 080°08'0 0.0
2018-Apr-16 13:58N 26°03' W 080°08'0 0.3
2018-Apr-16 13:30N 26°04' W 080°08'  

Dump ship's entire track history